createdAt,value
2022-07-29T00:01:43.893Z,44.00
2022-07-29T00:04:10.520Z,44.20
2022-07-29T00:06:37.101Z,44.30
2022-07-29T00:09:08.055Z,44.30
2022-07-29T00:11:34.599Z,44.10
2022-07-29T00:14:01.813Z,44.00
2022-07-29T00:16:28.410Z,43.90
2022-07-29T00:18:54.956Z,43.90
2022-07-29T00:21:21.506Z,44.10
2022-07-29T00:23:48.029Z,44.10
2022-07-29T00:26:14.563Z,44.10
2022-07-29T00:28:41.086Z,44.30
2022-07-29T00:31:07.619Z,44.20
2022-07-29T00:33:34.160Z,44.30
2022-07-29T00:36:00.688Z,44.30
2022-07-29T00:38:27.217Z,44.20
2022-07-29T00:40:55.828Z,44.20
2022-07-29T00:43:22.389Z,44.10
2022-07-29T00:45:49.847Z,44.00
2022-07-29T00:48:16.374Z,44.00
2022-07-29T00:50:42.904Z,44.10
2022-07-29T00:53:09.449Z,43.90
2022-07-29T00:55:35.988Z,44.10
2022-07-29T00:58:02.507Z,43.90
2022-07-29T01:00:31.933Z,43.90
2022-07-29T01:02:58.592Z,43.80
2022-07-29T01:05:25.129Z,43.90
2022-07-29T01:08:11.652Z,43.90
2022-07-29T01:10:38.167Z,43.80
2022-07-29T01:13:08.554Z,43.80
2022-07-29T01:15:35.144Z,43.90
2022-07-29T01:18:03.288Z,43.90
2022-07-29T01:20:31.913Z,44.20
2022-07-29T01:22:58.634Z,43.90
2022-07-29T01:25:25.865Z,43.80
2022-07-29T01:27:52.401Z,43.90
2022-07-29T01:30:18.915Z,43.80
2022-07-29T01:32:45.465Z,44.00
2022-07-29T01:35:11.978Z,43.70
2022-07-29T01:37:38.620Z,43.90
2022-07-29T01:40:05.168Z,43.70
2022-07-29T01:42:31.700Z,43.70
2022-07-29T01:45:01.937Z,43.80
2022-07-29T01:47:28.492Z,43.70
2022-07-29T01:49:55.033Z,44.10
2022-07-29T01:52:26.057Z,43.50
2022-07-29T01:54:52.576Z,43.70
2022-07-29T01:57:19.115Z,43.60
2022-07-29T01:59:45.633Z,43.50
2022-07-29T02:02:12.166Z,43.70
2022-07-29T02:04:38.758Z,43.70
2022-07-29T02:07:05.348Z,43.60
2022-07-29T02:09:31.943Z,43.70
2022-07-29T02:12:02.123Z,43.60
2022-07-29T02:14:28.687Z,43.40
2022-07-29T02:16:55.919Z,43.70
2022-07-29T02:19:22.453Z,43.50
2022-07-29T02:21:48.962Z,43.50
2022-07-29T02:24:15.760Z,43.60
2022-07-29T02:26:42.634Z,43.70
2022-07-29T02:29:09.148Z,43.60
2022-07-29T02:31:35.810Z,43.40
2022-07-29T02:34:03.524Z,43.40
2022-07-29T02:36:30.046Z,43.40
2022-07-29T02:38:56.601Z,43.40
2022-07-29T02:41:23.122Z,43.30
2022-07-29T02:43:49.847Z,43.40
2022-07-29T02:46:28.796Z,43.40
2022-07-29T02:48:56.134Z,43.40
2022-07-29T02:51:43.468Z,43.50
2022-07-29T02:54:09.221Z,43.40
2022-07-29T02:56:35.744Z,43.30
2022-07-29T02:59:02.285Z,43.40
2022-07-29T03:01:28.890Z,43.30
2022-07-29T03:03:55.494Z,43.40
2022-07-29T03:06:31.142Z,43.30
2022-07-29T03:09:10.484Z,43.20
2022-07-29T03:11:41.414Z,43.20
2022-07-29T03:14:20.515Z,43.20
2022-07-29T03:16:49.969Z,43.20
2022-07-29T03:19:16.500Z,43.30
2022-07-29T03:21:43.020Z,43.30
2022-07-29T03:24:10.739Z,43.20
2022-07-29T03:26:39.048Z,43.40
2022-07-29T03:29:14.211Z,43.20
2022-07-29T03:31:41.476Z,43.20
2022-07-29T03:34:14.346Z,43.40
2022-07-29T03:36:41.014Z,43.30
2022-07-29T03:39:09.017Z,43.20
2022-07-29T03:41:38.033Z,43.30
2022-07-29T03:44:08.078Z,43.10
2022-07-29T03:46:34.648Z,43.20
2022-07-29T03:49:01.405Z,43.20
2022-07-29T03:51:34.091Z,43.20
2022-07-29T03:54:05.014Z,42.90
2022-07-29T03:56:35.977Z,43.10
2022-07-29T03:59:02.487Z,42.90
2022-07-29T04:01:29.034Z,42.90
2022-07-29T04:03:55.659Z,43.00
2022-07-29T04:06:22.233Z,43.10
2022-07-29T04:08:49.987Z,43.10
2022-07-29T04:11:16.513Z,43.00
2022-07-29T04:13:43.018Z,43.00
2022-07-29T04:16:09.999Z,43.10
2022-07-29T04:18:36.586Z,43.10
2022-07-29T04:21:03.459Z,43.20
2022-07-29T04:23:29.975Z,42.90
2022-07-29T04:25:56.515Z,42.90
2022-07-29T04:28:23.038Z,43.00
2022-07-29T04:30:49.646Z,43.20
2022-07-29T04:33:16.194Z,43.00
2022-07-29T04:35:49.849Z,42.90
2022-07-29T04:38:17.362Z,42.90
2022-07-29T04:40:43.980Z,42.80
2022-07-29T04:43:14.372Z,43.10
2022-07-29T04:45:42.132Z,43.00
2022-07-29T04:48:14.144Z,43.10
2022-07-29T04:50:40.685Z,43.00
2022-07-29T04:53:07.203Z,43.00
2022-07-29T04:55:33.744Z,43.20
2022-07-29T04:58:02.026Z,43.10
2022-07-29T05:00:33.137Z,43.00
2022-07-29T05:03:02.126Z,43.20
2022-07-29T05:05:32.083Z,43.20
2022-07-29T05:08:02.273Z,43.20
2022-07-29T05:10:28.821Z,43.10
2022-07-29T05:12:55.342Z,43.30
2022-07-29T05:15:21.900Z,43.20
2022-07-29T05:17:50.053Z,43.40
2022-07-29T05:20:16.610Z,43.40
2022-07-29T05:22:43.128Z,43.40
2022-07-29T05:25:09.688Z,43.50
2022-07-29T05:27:36.212Z,43.60
2022-07-29T05:30:02.736Z,43.60
2022-07-29T05:32:29.275Z,43.60
2022-07-29T05:34:55.812Z,43.60
2022-07-29T05:37:26.134Z,43.60
2022-07-29T05:39:57.272Z,43.70
2022-07-29T05:42:25.606Z,43.70
2022-07-29T05:44:52.138Z,43.70
2022-07-29T05:47:18.690Z,43.80
2022-07-29T05:49:45.235Z,43.80
2022-07-29T05:52:11.745Z,43.70
2022-07-29T05:54:38.277Z,43.80
2022-07-29T05:57:08.138Z,44.50
2022-07-29T05:59:34.670Z,43.80
2022-07-29T06:02:02.210Z,43.90
2022-07-29T06:04:28.771Z,43.90
2022-07-29T06:06:55.377Z,43.80
2022-07-29T06:09:21.911Z,43.90
2022-07-29T06:11:48.432Z,44.00
2022-07-29T06:14:15.156Z,44.80
2022-07-29T06:16:41.961Z,44.10
2022-07-29T06:19:08.519Z,44.00
2022-07-29T06:21:36.137Z,44.00
2022-07-29T06:24:08.627Z,44.00
2022-07-29T06:26:39.239Z,44.00
2022-07-29T06:29:06.355Z,44.10
2022-07-29T06:31:32.897Z,44.10
2022-07-29T06:33:59.419Z,44.20
2022-07-29T06:36:25.967Z,44.00
2022-07-29T06:38:52.513Z,44.00
2022-07-29T06:41:26.168Z,44.00
2022-07-29T06:43:54.638Z,44.00
2022-07-29T06:46:23.671Z,44.10
2022-07-29T06:48:50.494Z,44.10
2022-07-29T06:51:17.105Z,44.00
2022-07-29T06:54:00.607Z,44.00
2022-07-29T06:56:29.618Z,44.00
2022-07-29T06:58:56.124Z,44.10
2022-07-29T07:01:22.710Z,44.10
2022-07-29T07:03:49.338Z,44.00
2022-07-29T07:06:15.871Z,44.10
2022-07-29T07:08:42.397Z,44.00
2022-07-29T07:11:08.932Z,44.10
2022-07-29T07:13:36.598Z,44.00
2022-07-29T07:16:03.475Z,44.00
2022-07-29T07:18:30.015Z,44.10
2022-07-29T07:20:56.549Z,44.20
2022-07-29T07:23:23.080Z,44.30
2022-07-29T07:25:49.592Z,44.20
2022-07-29T07:28:16.115Z,44.30
2022-07-29T07:30:42.657Z,44.30
2022-07-29T07:33:09.191Z,44.20
2022-07-29T07:35:35.720Z,44.30
2022-07-29T07:38:08.205Z,44.20
2022-07-29T07:40:34.733Z,44.30
2022-07-29T07:43:01.270Z,44.50
2022-07-29T07:45:27.854Z,44.40
2022-07-29T07:47:54.431Z,44.40
2022-07-29T07:50:20.940Z,44.40
2022-07-29T07:52:47.622Z,44.40
2022-07-29T07:55:14.151Z,44.50
2022-07-29T07:57:40.685Z,44.50
2022-07-29T08:00:07.223Z,44.50
2022-07-29T08:02:33.784Z,44.50
2022-07-29T08:05:00.308Z,44.50
2022-07-29T08:07:26.834Z,44.60
2022-07-29T08:09:53.360Z,44.60
2022-07-29T08:12:19.863Z,44.60
2022-07-29T08:14:46.371Z,44.60
2022-07-29T08:17:12.885Z,44.60
2022-07-29T08:19:39.409Z,44.60
2022-07-29T08:22:05.930Z,44.60
2022-07-29T08:24:32.444Z,44.50
2022-07-29T08:26:58.960Z,44.60
2022-07-29T08:29:25.496Z,44.50
2022-07-29T08:31:52.299Z,44.60
2022-07-29T08:34:21.559Z,44.60
2022-07-29T08:36:54.255Z,44.60
2022-07-29T08:39:20.787Z,44.60
2022-07-29T08:41:57.044Z,44.60
2022-07-29T08:44:30.362Z,44.60
2022-07-29T08:46:57.828Z,45.30
2022-07-29T08:52:14.442Z,44.60
2022-07-29T08:54:40.985Z,44.60
2022-07-29T08:57:07.501Z,44.60
2022-07-29T08:59:35.765Z,44.60
2022-07-29T09:02:08.503Z,44.60
2022-07-29T09:04:35.799Z,44.60
2022-07-29T09:07:02.313Z,44.60
2022-07-29T09:09:28.850Z,44.60
2022-07-29T09:11:55.483Z,44.60
2022-07-29T09:14:22.246Z,44.50
2022-07-29T09:16:53.454Z,44.70
2022-07-29T09:19:20.489Z,44.60
2022-07-29T09:21:50.504Z,44.80
2022-07-29T09:24:17.027Z,44.80
2022-07-29T09:26:43.558Z,44.80
2022-07-29T09:29:10.064Z,44.80
2022-07-29T09:31:36.658Z,44.80
2022-07-29T09:34:03.240Z,45.00
2022-07-29T09:36:29.773Z,44.90
2022-07-29T09:38:56.286Z,45.00
2022-07-29T09:41:26.316Z,45.00
2022-07-29T09:43:52.839Z,45.10
2022-07-29T09:46:20.369Z,45.30
2022-07-29T09:48:46.966Z,45.40
2022-07-29T09:51:17.030Z,45.10
2022-07-29T09:53:46.093Z,45.30
2022-07-29T09:56:12.599Z,45.30
2022-07-29T09:58:44.471Z,45.20
2022-07-29T10:01:11.061Z,45.30
2022-07-29T10:03:37.725Z,45.30
2022-07-29T10:08:54.308Z,45.50
2022-07-29T10:11:20.847Z,45.40
2022-07-29T10:13:47.369Z,45.50
2022-07-29T10:16:14.220Z,45.50
2022-07-29T10:18:40.856Z,45.60
2022-07-29T10:21:08.352Z,45.70
2022-07-29T10:23:46.154Z,45.60
2022-07-29T10:26:14.340Z,45.70
2022-07-29T10:28:40.874Z,45.70
2022-07-29T10:31:08.209Z,45.70
2022-07-29T10:33:34.808Z,45.80
2022-07-29T10:36:02.345Z,45.80
2022-07-29T10:38:28.880Z,45.80
2022-07-29T10:40:57.363Z,45.90
2022-07-29T10:43:24.444Z,45.90
2022-07-29T10:45:51.634Z,45.80
2022-07-29T10:48:19.242Z,45.80
2022-07-29T10:50:45.809Z,45.90
2022-07-29T10:53:14.309Z,45.90
2022-07-29T10:55:43.028Z,45.90
2022-07-29T10:58:09.998Z,45.90
2022-07-29T11:00:37.450Z,45.90
2022-07-29T11:03:10.564Z,45.90
2022-07-29T11:05:40.690Z,45.90
2022-07-29T11:08:07.537Z,46.00
2022-07-29T11:10:34.073Z,45.90
2022-07-29T11:13:00.594Z,46.00
2022-07-29T11:15:28.756Z,46.10
2022-07-29T11:18:02.513Z,46.20
2022-07-29T11:20:29.048Z,46.10
2022-07-29T11:22:55.576Z,46.10
2022-07-29T11:25:50.123Z,46.20
2022-07-29T11:28:08.633Z,46.20
2022-07-29T11:30:35.175Z,46.30
2022-07-29T11:33:01.680Z,46.30
2022-07-29T11:38:16.157Z,46.40
2022-07-29T11:40:44.664Z,46.40
2022-07-29T11:43:14.729Z,46.40
2022-07-29T11:45:44.727Z,46.50
2022-07-29T11:48:29.541Z,46.60
2022-07-29T11:50:58.619Z,46.50
2022-07-29T11:53:25.217Z,46.70
2022-07-29T11:58:42.338Z,46.60
2022-07-29T12:01:14.439Z,46.60
2022-07-29T12:03:41.024Z,46.80
2022-07-29T12:06:07.955Z,46.70
2022-07-29T12:07:01.567Z,46.50
2022-07-29T12:08:34.587Z,46.70
2022-07-29T12:11:02.188Z,46.70
2022-07-29T12:13:37.119Z,46.60
2022-07-29T12:16:04.476Z,46.80
2022-07-29T12:18:31.050Z,46.80
2022-07-29T12:20:57.574Z,46.70
2022-07-29T12:23:24.109Z,46.80
2022-07-29T12:25:55.911Z,46.80
2022-07-29T12:28:27.753Z,47.00
2022-07-29T12:30:54.691Z,47.10
2022-07-29T12:33:26.598Z,47.10
2022-07-29T12:36:06.105Z,47.20
2022-07-29T12:38:38.636Z,47.20
2022-07-29T12:41:05.260Z,47.30
2022-07-29T12:43:31.825Z,47.20
2022-07-29T12:45:58.351Z,47.10
2022-07-29T12:48:26.460Z,47.20
2022-07-29T12:50:56.539Z,47.20
2022-07-29T12:53:26.463Z,46.90
2022-07-29T12:55:56.656Z,47.10
2022-07-29T12:58:23.194Z,47.10
2022-07-29T13:00:49.777Z,47.20
2022-07-29T13:03:16.296Z,47.10
2022-07-29T13:05:50.607Z,47.10
2022-07-29T13:08:21.942Z,47.20
2022-07-29T13:10:48.693Z,47.20
2022-07-29T13:13:15.228Z,47.30
2022-07-29T13:15:41.762Z,47.20
2022-07-29T13:18:08.488Z,46.80
2022-07-29T13:20:34.993Z,46.80
2022-07-29T13:23:01.526Z,46.80
2022-07-29T13:25:32.606Z,46.90
2022-07-29T13:27:59.157Z,46.80
2022-07-29T13:30:26.486Z,46.60
2022-07-29T13:32:53.058Z,46.60
2022-07-29T13:35:20.445Z,46.20
2022-07-29T13:37:51.959Z,46.20
2022-07-29T13:40:18.553Z,46.20
2022-07-29T13:42:45.084Z,46.00
2022-07-29T13:45:11.617Z,46.10
2022-07-29T13:47:38.152Z,46.00
2022-07-29T13:50:06.117Z,46.10
2022-07-29T13:52:38.512Z,46.00
2022-07-29T13:55:05.038Z,45.90
2022-07-29T13:57:32.506Z,45.80
2022-07-29T13:59:59.025Z,46.10
2022-07-29T14:02:26.285Z,45.90
2022-07-29T14:04:53.038Z,45.90
2022-07-29T14:07:20.477Z,45.80
2022-07-29T14:09:47.019Z,45.80
2022-07-29T14:12:14.503Z,45.90
2022-07-29T14:14:41.029Z,45.90
2022-07-29T14:17:07.912Z,45.90
2022-07-29T14:19:38.535Z,45.90
2022-07-29T14:22:05.073Z,45.90
2022-07-29T14:24:31.606Z,45.80
2022-07-29T14:26:58.862Z,45.90
2022-07-29T14:29:25.461Z,45.90
2022-07-29T14:32:04.518Z,46.00
2022-07-29T14:34:31.112Z,45.80
2022-07-29T14:36:57.623Z,45.90
2022-07-29T14:39:24.170Z,46.00
2022-07-29T14:41:50.701Z,45.80
2022-07-29T14:44:17.256Z,45.90
2022-07-29T14:46:43.774Z,45.80
2022-07-29T14:49:15.155Z,45.90
2022-07-29T14:51:41.718Z,45.90
2022-07-29T14:54:08.582Z,45.90
2022-07-29T14:56:37.129Z,45.90
2022-07-29T14:59:04.150Z,45.90
2022-07-29T15:01:32.604Z,45.90
2022-07-29T15:03:59.903Z,45.90
2022-07-29T15:06:26.566Z,46.10
2022-07-29T15:08:53.105Z,45.90
2022-07-29T15:11:20.578Z,46.00
2022-07-29T15:13:50.732Z,46.00
2022-07-29T15:16:17.304Z,46.10
2022-07-29T15:18:44.560Z,46.00
2022-07-29T15:21:11.109Z,46.10
2022-07-29T15:23:37.612Z,46.10
2022-07-29T15:26:04.147Z,46.10
2022-07-29T15:28:32.550Z,46.10
2022-07-29T15:30:59.073Z,46.20
2022-07-29T15:33:25.593Z,46.20
2022-07-29T15:35:56.605Z,46.20
2022-07-29T15:38:28.690Z,46.20
2022-07-29T15:40:55.560Z,46.40
2022-07-29T15:43:22.098Z,46.30
2022-07-29T15:45:50.648Z,46.50
2022-07-29T15:48:17.197Z,46.30
2022-07-29T15:50:47.045Z,46.40
2022-07-29T15:53:13.799Z,46.30
2022-07-29T15:55:44.684Z,46.30
2022-07-29T15:58:13.982Z,46.30
2022-07-29T16:00:40.582Z,46.30
2022-07-29T16:03:07.140Z,46.40
2022-07-29T16:05:33.699Z,46.60
2022-07-29T16:08:00.215Z,46.60
2022-07-29T16:10:26.727Z,46.80
2022-07-29T16:12:53.231Z,46.70
2022-07-29T16:15:19.809Z,46.60
2022-07-29T16:17:50.808Z,46.80
2022-07-29T16:20:17.332Z,46.70
2022-07-29T16:22:43.858Z,47.10
2022-07-29T16:25:14.634Z,47.10
2022-07-29T16:27:41.152Z,46.90
2022-07-29T16:30:07.712Z,47.00
2022-07-29T16:32:34.231Z,47.30
2022-07-29T16:35:02.661Z,47.20
2022-07-29T16:37:29.189Z,47.20
2022-07-29T16:39:55.725Z,47.40
2022-07-29T16:42:44.281Z,47.50
2022-07-29T16:45:08.747Z,47.40
2022-07-29T16:47:36.045Z,47.50
2022-07-29T16:50:02.556Z,47.30
2022-07-29T16:52:29.075Z,47.50
2022-07-29T16:54:56.629Z,47.70
2022-07-29T16:57:26.661Z,47.60
2022-07-29T16:59:53.179Z,47.50
2022-07-29T17:02:20.707Z,47.50
2022-07-29T17:04:50.658Z,47.50
2022-07-29T17:07:17.199Z,47.60
2022-07-29T17:09:43.729Z,47.40
2022-07-29T17:12:14.681Z,47.90
2022-07-29T17:14:41.212Z,47.80
2022-07-29T17:17:13.888Z,48.00
2022-07-29T17:19:43.151Z,47.80
2022-07-29T17:22:15.585Z,47.40
2022-07-29T17:24:45.520Z,47.60
2022-07-29T17:27:12.260Z,47.60
2022-07-29T17:29:38.973Z,47.70
2022-07-29T17:32:07.591Z,47.70
2022-07-29T17:34:38.716Z,47.80
2022-07-29T17:37:05.266Z,48.10
2022-07-29T17:39:32.684Z,47.90
2022-07-29T17:41:59.264Z,48.00
2022-07-29T17:44:25.837Z,48.50
2022-07-29T17:46:52.524Z,47.90
2022-07-29T17:49:19.230Z,48.20
2022-07-29T17:51:45.825Z,48.20
2022-07-29T17:54:12.395Z,48.10
2022-07-29T17:56:38.982Z,47.70
2022-07-29T17:59:09.021Z,47.80
2022-07-29T18:01:35.615Z,47.90
2022-07-29T18:04:02.184Z,48.00
2022-07-29T18:06:28.734Z,48.20
2022-07-29T18:08:56.683Z,48.20
2022-07-29T18:11:23.237Z,48.20
2022-07-29T18:13:49.764Z,48.30
2022-07-29T18:16:20.802Z,48.20
2022-07-29T18:18:47.355Z,48.30
2022-07-29T18:21:13.926Z,48.30
2022-07-29T18:23:40.453Z,48.40
2022-07-29T18:26:06.998Z,48.50
2022-07-29T18:28:33.516Z,48.40
2022-07-29T18:31:00.141Z,48.40
2022-07-29T18:33:26.739Z,48.50
2022-07-29T18:36:10.523Z,48.50
2022-07-29T18:38:44.781Z,48.60
2022-07-29T18:41:14.763Z,48.60
2022-07-29T18:43:41.283Z,48.60
2022-07-29T18:48:57.879Z,48.60
2022-07-29T18:51:24.410Z,48.70
2022-07-29T18:53:50.912Z,48.70
2022-07-29T18:56:17.461Z,48.70
2022-07-29T18:58:44.719Z,48.60
2022-07-29T19:01:16.408Z,48.70
2022-07-29T19:03:43.387Z,48.70
2022-07-29T19:06:09.935Z,48.60
2022-07-29T19:08:36.441Z,48.90
2022-07-29T19:11:08.778Z,48.80
2022-07-29T19:13:35.301Z,48.80
2022-07-29T19:16:01.879Z,48.90
2022-07-29T19:18:28.430Z,48.80
2022-07-29T19:20:56.792Z,48.90
2022-07-29T19:23:23.320Z,48.80
2022-07-29T19:25:53.997Z,48.80
2022-07-29T19:28:20.745Z,48.80
2022-07-29T19:30:47.326Z,48.70
2022-07-29T19:33:13.913Z,48.80
2022-07-29T19:35:40.434Z,48.80
2022-07-29T19:38:06.939Z,48.80
2022-07-29T19:40:38.792Z,48.80
2022-07-29T19:43:51.238Z,48.70
2022-07-29T19:45:51.840Z,48.70
2022-07-29T19:48:18.363Z,48.70
2022-07-29T19:50:44.932Z,48.60
2022-07-29T19:53:11.475Z,48.60
2022-07-29T19:55:38.028Z,48.60
2022-07-29T19:58:04.572Z,48.50
2022-07-29T20:00:34.948Z,48.50
2022-07-29T20:03:01.560Z,48.50
2022-07-29T20:05:28.410Z,48.50
2022-07-29T20:07:55.057Z,48.50
2022-07-29T20:10:21.622Z,48.50
2022-07-29T20:12:48.142Z,48.50
2022-07-29T20:15:18.929Z,48.50
2022-07-29T20:17:45.461Z,48.60
2022-07-29T20:20:12.003Z,48.60
2022-07-29T20:22:38.532Z,48.60
2022-07-29T20:25:05.036Z,48.70
2022-07-29T20:27:31.563Z,48.80
2022-07-29T20:29:58.098Z,48.90
2022-07-29T20:32:26.823Z,48.80
2022-07-29T20:34:53.362Z,48.80
2022-07-29T20:37:19.905Z,48.80
2022-07-29T20:39:46.413Z,48.70
2022-07-29T20:42:14.851Z,48.80
2022-07-29T20:44:41.364Z,48.90
2022-07-29T20:47:07.885Z,48.80
2022-07-29T20:49:34.416Z,48.80
2022-07-29T20:52:00.948Z,48.80
2022-07-29T20:54:27.477Z,48.80
2022-07-29T20:59:45.911Z,48.90
2022-07-29T21:02:12.541Z,49.00
2022-07-29T21:04:39.097Z,49.10
2022-07-29T21:07:05.637Z,49.10
2022-07-29T21:09:32.164Z,49.10
2022-07-29T21:11:58.750Z,49.10
2022-07-29T21:14:25.284Z,49.10
2022-07-29T21:16:51.824Z,49.10
2022-07-29T21:19:18.351Z,49.10
2022-07-29T21:21:44.864Z,49.10
2022-07-29T21:24:12.195Z,49.20
2022-07-29T21:26:54.436Z,49.20
2022-07-29T21:29:32.857Z,49.30
2022-07-29T21:31:59.401Z,49.40
2022-07-29T21:34:26.860Z,49.30
2022-07-29T21:36:53.402Z,49.40
2022-07-29T21:39:19.937Z,49.40
2022-07-29T21:41:50.912Z,49.40
2022-07-29T21:44:17.464Z,49.40
2022-07-29T21:46:44.002Z,50.10
2022-07-29T21:49:10.667Z,49.40
2022-07-29T21:51:37.297Z,49.50
2022-07-29T21:54:03.808Z,49.60
2022-07-29T21:56:30.338Z,49.60
2022-07-29T21:58:58.085Z,49.60
2022-07-29T22:01:24.742Z,49.60
2022-07-29T22:03:51.431Z,49.70
2022-07-29T22:06:18.559Z,49.70
2022-07-29T22:08:45.186Z,49.70
2022-07-29T22:11:11.731Z,49.70
2022-07-29T22:13:38.260Z,49.60
2022-07-29T22:16:04.809Z,49.80
2022-07-29T22:18:31.322Z,49.70
2022-07-29T22:20:57.878Z,49.80
2022-07-29T22:23:24.411Z,49.70
2022-07-29T22:25:56.949Z,49.70
2022-07-29T22:28:23.477Z,49.90
2022-07-29T22:30:50.974Z,49.80
2022-07-29T22:33:21.035Z,49.80
2022-07-29T22:35:48.863Z,49.80
2022-07-29T22:38:15.707Z,49.70
2022-07-29T22:40:42.232Z,49.70
2022-07-29T22:43:15.144Z,49.70
2022-07-29T22:45:45.028Z,49.80
2022-07-29T22:48:11.594Z,49.70
2022-07-29T22:50:38.739Z,49.60
2022-07-29T22:53:05.273Z,50.40
2022-07-29T22:55:31.792Z,49.70
2022-07-29T22:57:58.333Z,49.80
2022-07-29T23:00:24.864Z,49.60
2022-07-29T23:02:51.409Z,49.70
2022-07-29T23:05:21.116Z,49.70
2022-07-29T23:07:47.650Z,49.80
2022-07-29T23:10:14.176Z,49.70
2022-07-29T23:12:40.695Z,49.60
2022-07-29T23:15:07.213Z,49.60
2022-07-29T23:17:36.252Z,49.70
2022-07-29T23:20:03.263Z,49.70
2022-07-29T23:22:29.789Z,49.70
2022-07-29T23:24:56.328Z,49.70
2022-07-29T23:27:22.865Z,49.60
2022-07-29T23:29:49.393Z,49.70
2022-07-29T23:32:16.259Z,49.70
2022-07-29T23:34:42.827Z,49.60
2022-07-29T23:37:09.361Z,49.70
2022-07-29T23:39:35.892Z,49.70
2022-07-29T23:42:02.423Z,49.60
2022-07-29T23:44:33.047Z,49.70
2022-07-29T23:46:59.906Z,49.60
2022-07-29T23:49:26.591Z,49.70
2022-07-29T23:51:53.123Z,49.70
2022-07-29T23:54:19.626Z,49.70
2022-07-29T23:56:46.488Z,49.60
2022-07-29T23:59:13.119Z,50.00
